»·PEaware :: XOJ250 KLAS-KSNA

XOJ250 :: KLAS-KSNA

FLIGHT INFORMATION

Flight Status: Arrived
Operator:
XOJET
More flights by this operator :: More flights under this callsign
Pilot: Anonymous 13363 (13363)
Aircraft: BOMBARDIER BD-100 CHALLENGER 300
(CL30)
More flights by this aircraft type
Origin: KLAS McCarran Intl
United States
Destination: KSNA John Wayne-Orange Co
United States
More flights between these airports :: More routes between these airports
Route: BOACH8 WHIGG FEYLA DSNEE1
File this flight plan on PilotEdge
Remarks: WHISKEY RUN
Altitude:
(Current/Filed)
26,000ft
Speed:
(Current/Filed)
460kts
Departed: 28-Nov-17 06:46 PM
Arrived: 28-Nov-17 07:27 PM
Distance/Time
Traveled:
197nm/0:41
Distance/Time
To Go:
Arrived

Flight Plot

Page will automatically refresh every two minutes.

Flight plan parsing failed; only flown route is shown


Map Options




Map Legend


Flown Route
Filed Route
Departure Airport
Arrival Airport
Navaid (VOR, NDB)
Fix

Horizontal Profiles

Position Reports

Time Latitude Longitude Heading Altitude Ground
Speed
28-Nov-17 18:29 36.097179 -115.161246 293 2147ft 0kts
28-Nov-17 18:30 36.097179 -115.161246 293 2147ft 0kts
28-Nov-17 18:31 36.097179 -115.161246 293 2147ft 0kts
28-Nov-17 18:32 36.097179 -115.161246 293 2147ft 0kts
28-Nov-17 18:33 36.097179 -115.161246 293 2147ft 0kts
28-Nov-17 18:34 36.097179 -115.161246 293 2147ft 0kts
28-Nov-17 18:35 36.097179 -115.161246 293 2147ft 0kts
28-Nov-17 18:36 36.097179 -115.161246 293 2147ft 0kts
28-Nov-17 18:37 36.097179 -115.161246 293 2147ft 0kts
28-Nov-17 18:38 36.097179 -115.161246 293 2147ft 0kts
28-Nov-17 18:39 36.097179 -115.161246 293 2147ft 0kts
28-Nov-17 18:40 36.097179 -115.161246 293 2147ft 0kts
28-Nov-17 18:41 36.097179 -115.161246 293 2147ft 0kts
28-Nov-17 18:42 36.097179 -115.161246 293 2147ft 0kts
28-Nov-17 18:43 36.097179 -115.161246 293 2147ft 0kts
28-Nov-17 18:44 36.097179 -115.161246 293 2147ft 0kts
28-Nov-17 18:45 36.097179 -115.161246 293 2147ft 0kts
28-Nov-17 18:46 36.097182 -115.161255 293 2147ft 0kts
28-Nov-17 18:47 36.097182 -115.161256 293 2147ft 0kts
28-Nov-17 18:48 36.097515 -115.161351 26 2147ft 2kts
28-Nov-17 18:49 36.098116 -115.160789 62 2147ft 8kts
28-Nov-17 18:50 36.099466 -115.158861 56 2147ft 7kts
28-Nov-17 18:51 36.096072 -115.158518 204 2147ft 93kts
28-Nov-17 18:52 36.053922 -115.181060 203 5294ft 192kts
28-Nov-17 18:53 36.007559 -115.235178 227 8944ft 280kts
28-Nov-17 18:54 35.978311 -115.318617 235 13983ft 294kts
28-Nov-17 18:55 35.900793 -115.359496 199 17782ft 335kts
28-Nov-17 18:56 35.807138 -115.398448 199 20517ft 378kts
28-Nov-17 18:57 35.706658 -115.440493 199 23618ft 394kts
28-Nov-17 18:58 35.602074 -115.484237 199 26109ft 412kts
28-Nov-17 18:59 35.497879 -115.544637 223 26140ft 429kts
28-Nov-17 19:00 35.415444 -115.649805 225 26126ft 424kts
28-Nov-17 19:01 35.350153 -115.736452 225 26127ft 412kts
28-Nov-17 19:02 35.284964 -115.823538 225 26127ft 404kts
28-Nov-17 19:03 35.210370 -115.921815 224 26127ft 398kts
28-Nov-17 19:04 35.134221 -116.018056 224 26127ft 396kts
28-Nov-17 19:05 35.058053 -116.113932 224 26126ft 396kts
28-Nov-17 19:06 34.981383 -116.210154 224 26125ft 398kts
28-Nov-17 19:07 34.904337 -116.306557 224 26125ft 399kts
28-Nov-17 19:08 34.860140 -116.362449 224 26132ft 400kts
28-Nov-17 19:09 34.795582 -116.444650 224 26131ft 401kts
28-Nov-17 19:10 34.717731 -116.543535 224 25152ft 424kts
28-Nov-17 19:11 34.629477 -116.636640 218 24582ft 426kts
28-Nov-17 19:12 34.565643 -116.699347 217 23831ft 426kts
28-Nov-17 19:13 34.481744 -116.785783 222 22554ft 398kts
28-Nov-17 19:14 34.404814 -116.874911 222 21259ft 381kts
28-Nov-17 19:15 34.333965 -116.956865 222 19812ft 376kts
28-Nov-17 19:16 34.256418 -117.039261 211 18200ft 371kts
28-Nov-17 19:17 34.169329 -117.102218 204 16597ft 366kts
28-Nov-17 19:18 34.080501 -117.150742 204 16130ft 335kts
28-Nov-17 19:19 34.000406 -117.196524 220 16097ft 312kts
28-Nov-17 19:20 33.944539 -117.270526 227 16011ft 303kts
28-Nov-17 19:21 33.891837 -117.343687 228 15369ft 300kts
28-Nov-17 19:22 33.844037 -117.410738 228 12813ft 287kts
28-Nov-17 19:23 33.805520 -117.490388 247 9812ft 276kts
28-Nov-17 19:24 33.820822 -117.575343 291 7081ft 266kts
28-Nov-17 19:25 33.842807 -117.642543 291 5707ft 263kts
28-Nov-17 19:26 33.865267 -117.711161 291 4884ft 270kts
28-Nov-17 19:27 33.852595 -117.778009 196 4386ft 224kts
28-Nov-17 19:28 33.799713 -117.795650 198 4132ft 190kts
28-Nov-17 19:29 33.753740 -117.817832 206 3045ft 154kts
28-Nov-17 19:30 33.718080 -117.841711 207 1410ft 136kts
28-Nov-17 19:31 33.686678 -117.861870 205 248ft 131kts
28-Nov-17 19:32 33.668747 -117.873209 206 62ft 19kts
28-Nov-17 19:33 33.666483 -117.873409 197 62ft 5kts
28-Nov-17 19:34 33.666081 -117.873344 216 62ft 0kts
28-Nov-17 19:35 33.666078 -117.873346 216 62ft 0kts
28-Nov-17 19:36 33.666078 -117.873346 216 62ft 0kts
28-Nov-17 19:37 33.666078 -117.873346 216 62ft 0kts
28-Nov-17 19:38 33.666078 -117.873346 216 62ft 0kts
28-Nov-17 19:39 33.665681 -117.873557 41 60ft 0kts
28-Nov-17 19:40 33.665681 -117.873557 41 60ft 0kts
28-Nov-17 19:41 33.665681 -117.873557 41 60ft 0kts
28-Nov-17 19:42 33.665681 -117.873557 41 60ft 0kts
28-Nov-17 19:43 33.665681 -117.873557 41 60ft 0kts

Navigation Log

Ident Type
Flight plan parsing failed, navigation log unavailable